Cactus Peak, Santa Catalina Island Weather observations

Data are for 10 minute period ending at time listed.
 Day   Time   Solar   Ave.   Ave.  Ave.  Vector    Max.   Stn.    Total
  of    of     Rad.   Air    Rel.  Wind   Wind     Wind   Baro.  Precip.
Year   Day            Temp.  Hum.  Speed  Dir.     Gust   Pres.         
2015   (PST)   W/m2    F      %     mph   deg.      mph    mb.     in.  
------------------------------------------------------------------------
  56   17:00  167.0    60   73.9     7    344.1     9.0    999.0   0.00  
  56   17:10  136.0    59   77.4     9    335.2    11.3    999.0   0.00  
  56   17:20   99.0    58   77.5     9    332.9    10.8    999.0   0.00  
  56   17:30   60.0    58   78.3     6    338.5     7.8    999.0   0.00  
  56   17:40   30.0    58   78.7     6    328.1     7.2    999.0   0.00  
  56   17:50    9.0    57   66.4     2    319.7     4.2    999.0   0.00  
  56   18:00    4.0    60   52.0     3    312.2     5.4    999.0   0.00  
  56   18:10    0.0    58   59.0     4    330.5     6.6    999.0   0.00  
  56   18:20    0.0    57   71.1     4    316.9     6.0    999.0   0.00  
  56   18:30    0.0    56   78.6     6    325.3     7.8    999.0   0.00  
  56   18:40    0.0    56   84.0     7    333.5     9.6    999.0   0.00  
  56   18:50    0.0    56   86.0     6    337.7     7.8    999.0   0.00  
  56   19:00    0.0    56   86.9     7    340.7     9.6    999.0   0.00  
  56   19:10    0.0    56   87.4     7    333.9     9.0    999.0   0.00  
  56   19:20    0.0    55   87.8     4    349.9     6.6    999.0   0.00  
  56   19:30    0.0    55   88.2     3      3.3     3.6    999.0   0.00  
  56   19:40    0.0    55   88.2     4      8.6     5.4    999.0   0.00  
  56   19:50    0.0    54   86.3     3      8.9     3.6    999.0   0.00  
  56   20:00    0.0    56   68.1     3    342.8     3.6    999.0   0.00  
  56   20:10    0.0    58   49.2     2    262.3     3.6    999.0   0.00  
  56   20:20    0.0    60   46.8     3    177.0     4.8    999.0   0.00  
  56   20:30    0.0    60   48.4     3    293.1     6.0    999.0   0.00  
  56   20:40    0.0    57   58.8     6    327.8     7.8    999.0   0.00  
  56   20:50    0.0    57   60.8     6    329.9     7.8    999.0   0.00  
  56   21:00    0.0    57   63.1     5    342.0     6.0    999.0   0.00  
  56   21:10    0.0    57   58.0     4    342.4     4.8    999.0   0.00  
  56   21:20    0.0    58   48.6     5    327.7     5.4    999.0   0.00  
  56   21:30    0.0    59   43.0     4    320.4     4.8    999.0   0.00  
  56   21:40    0.0    60   40.5     2    332.8     4.8    999.0   0.00  
  56   21:50    0.0    60   39.3     3    321.1     4.2    999.0   0.00  
  56   22:00    0.0    59   41.6     6    327.7     9.0    999.0   0.00  
  56   22:10    0.0    58   45.5     6    337.6     9.0    999.0   0.00  
  56   22:20    0.0    59   41.8     4    292.4     5.4    999.0   0.00  
  56   22:30    0.0    60   38.8     2    292.2     3.0    999.0   0.00  
  56   22:40    0.0    60   40.2     2    257.1     3.0    999.0   0.00  
  56   22:50    0.0    60   38.1     1    310.7     3.0    999.0   0.00  
  56   23:00    0.0    60   37.8     1    206.6     1.8    999.0   0.00  
  56   23:10    0.0    60   39.0     3    332.4     5.4    999.0   0.00  
  56   23:20    0.0    60   38.2     4    359.1     5.4    999.0   0.00  
  56   23:30    0.0    60   37.0     4    350.3     4.8    999.0   0.00  
  56   23:40    0.0    60   37.9     4    335.1     4.8    999.0   0.00  
  56   23:50    0.0    59   40.6     4    329.4     6.0    999.0   0.00  
  57    0:00    0.0    59   41.6     5    349.6     5.4    999.0   0.00  
  57    0:10    0.0    59   42.4     4    339.1     4.8    999.0   0.00  
  57    0:20    0.0    58   43.0     4    338.8     4.8    999.0   0.00  
  57    0:30    0.0    60   38.5     3      3.0     4.2    999.0   0.00  
  57    0:40    0.0    59   38.5     1    325.1     1.2    999.0   0.00  
  57    0:50    0.0    59   40.2     2    166.5     3.0    999.0   0.00  
  57    1:00    0.0    59   39.9     1    165.1     1.8    999.0   0.00  
  57    1:10    0.0    59   39.9     1    282.1     4.2    999.0   0.00  
  57    1:20    0.0    59   38.7     5    339.2     5.4    999.0   0.00  
  57    1:30    0.0    59   37.5     3    340.3     4.8    999.0   0.00  
  57    1:40    0.0    60   37.5     2    354.7     3.0    999.0   0.00  
  57    1:50    0.0    60   42.6     2     26.0     3.0    999.0   0.00  
  57    2:00    0.0    60   46.4     2    132.5     4.2    999.0   0.00  
  57    2:10    0.0    59   45.0     5    167.6     6.0    999.0   0.00  
  57    2:20    0.0    59   43.6     4    165.0     6.0    999.0   0.00  
  57    2:30    0.0    60   43.2     4    155.1     6.0    999.0   0.00  
  57    2:40    0.0    60   43.1     5    151.6     6.6    999.0   0.00  
  57    2:50    0.0    60   42.4     2    163.8     3.6    999.0   0.00  
  57    3:00    0.0    59   42.2     5    334.1     7.8    999.0   0.00  
  57    3:10    0.0    58   46.5     3    171.1     6.6    999.0   0.00  
  57    3:20    0.0    58   54.0     4    143.9     8.4    999.0   0.00  
  57    3:30    0.0    58   50.0     4    156.0     6.0    999.0   0.00  
  57    3:40    0.0    58   56.0     6    130.6     7.8    999.0   0.00  
  57    3:50    0.0    58   54.2     6    136.0     7.2    999.0   0.00  
  57    4:00    0.0    57   64.9     6    115.9     8.4    999.0   0.00  
  57    4:10    0.0    56   65.8     4     91.8     7.8    999.0   0.00  
  57    4:20    0.0    58   53.1     3     67.6     4.2    999.0   0.00  
  57    4:30    0.0    59   53.5     4     89.1     5.4    999.0   0.00  
  57    4:40    0.0    58   54.3     5    122.3     7.8    999.0   0.00  
  57    4:50    0.0    56   62.3     5    147.2     7.8    999.0   0.00  
  57    5:00    0.0    55   75.0     4    161.0     6.0    999.0   0.00  
  57    5:10    0.0    54   81.2     6    169.1     8.4    999.0   0.00  
  57    5:20    0.0    54   86.8     6    163.6     9.6    999.0   0.00  
  57    5:30    0.0    54   87.9     8    164.4    10.8    999.0   0.00  
  57    5:40    0.0    54   88.4     7    163.4    10.2    999.0   0.00  
  57    5:50    0.0    53   88.6     8    172.4    11.3    999.0   0.00  
  57    6:00    0.0    53   88.8     6    175.5     9.0    999.0   0.00  
  57    6:10    0.0    53   88.6     3    295.1     6.6    999.0   0.00  
  57    6:20    0.0    52   88.2     2    323.6     4.2    999.0   0.00  
  57    6:30    3.0    52   85.9     3    242.1     5.4    999.0   0.00  
  57    6:40    9.0    54   83.5     4    206.7     7.8    999.0   0.00  
  57    6:50   20.0    54   84.6     5    177.8     7.8    999.0   0.00  
  57    7:00   42.0    55   74.0     5    200.7     6.6    999.0   0.00  
  57    7:10   53.0    56   72.3     5    196.0     7.8    999.0   0.00  
  57    7:20  116.0    56   80.7     2    358.5     3.6    999.0   0.00  
  57    7:30  148.0    57   77.9     4     38.3     4.8    999.0   0.00  
  57    7:40  180.0    57   71.9     4    125.3     7.2    999.0   0.00  
  57    7:50  217.0    57   76.9     4    162.4     6.0    999.0   0.00  
  57    8:00  252.0    58   77.6     4    167.6     6.6    999.0   0.00  
  57    8:10  275.0    57   79.6     7    169.4     9.6    999.0   0.00  
  57    8:20  316.0    58   80.5     5    165.6     9.0    999.0   0.00  
  57    8:30  347.0    59   78.2     4    167.8     6.0    999.0   0.00  
  57    8:40  382.0    60   76.2     3    147.0     5.4    999.0   0.00  
  57    8:50  412.0    62   73.2     3    166.4     5.4    999.0   0.00  
  57    9:00  441.0    62   72.5     3    168.0     6.0    999.0   0.00  
  57    9:10  479.0    62   74.8     4    177.1     6.6    999.0   0.00  
  57    9:20  467.0    61   76.1     4    193.7     8.4    999.0   0.00  
  57    9:30  528.0    63   73.2     2    155.9     4.2    999.0   0.00  
  57    9:40  560.0    65   67.7     2    110.4     4.2    999.0   0.00  
  57    9:50  586.0    64   70.1     5    162.4     9.0    999.0   0.00  
  57   10:00  596.0    62   75.7     7    167.4    10.8    999.0   0.00  
  57   10:10  638.0    61   77.6     7    169.9    11.9    999.0   0.00  
  57   10:20  590.0    61   77.7     7    168.0    12.5    999.0   0.00  
  57   10:30  569.0    60   78.6     8    169.5    13.7    999.0   0.00  
  57   10:40  627.0    60   79.2     9    170.4    14.3    999.0   0.00  
  57   10:50  727.0    61   77.8     6    170.4     9.6    999.0   0.00  
  57   11:00  582.0    62   75.9     5    174.9     9.6    999.0   0.00  
  57   11:10  837.0    62   75.2     6    153.0    10.2    999.0   0.00  
  57   11:20  591.0    61   77.3     7    184.1    11.3    999.0   0.00  
  57   11:30  352.0    60   79.7     6    170.5    11.9    999.0   0.00  
  57   11:40  467.0    60   80.3     9    171.9    14.3    999.0   0.00  
  57   11:50  668.0    61   78.5     7    165.0    11.9    999.0   0.00  
  57   12:00  394.0    60   78.8     7    157.8    12.5    999.0   0.00  
  57   12:10  538.0    60   79.9     8    157.9    13.7    999.0   0.00  
  57   12:20  523.0    60   78.9     9    165.5    13.7    999.0   0.00  
  57   12:30  541.0    60   79.4     9    160.5    13.7    999.0   0.00  
  57   12:40  624.0    60   79.6     8    163.4    14.3    999.0   0.00  
  57   12:50  702.0    60   79.5    10    175.7    13.7    999.0   0.00  
  57   13:00  734.0    61   77.9    10    174.5    14.9    999.0   0.00  
  57   13:10  704.0    61   76.9     8    168.9    13.1    999.0   0.00  
  57   13:20  740.0    62   75.1     9    174.9    13.1    999.0   0.00  
  57   13:30  666.0    62   73.8     8    179.4    11.9    999.0   0.00  
  57   13:40  493.0    62   74.8     8    181.6    11.9    999.0   0.00  
  57   13:50  650.0    61   76.1     9    174.4    12.5    999.0   0.00  
  57   14:00  690.0    61   76.4     8    175.8    13.7    999.0   0.00  
  57   14:10  651.0    63   74.0     5    151.1    11.3    999.0   0.00  
  57   14:20  629.0    63   73.1     6    166.7    13.7    999.0   0.00  
  57   14:30  612.0    62   75.8     8    170.5    14.3    999.0   0.00  
  57   14:40  603.0    61   77.2     8    181.8    11.9    999.0   0.00  
  57   14:50  573.0    62   76.3     9    174.7    13.7    999.0   0.00  
  57   15:00  538.0    62   76.7     7    172.5    11.3    999.0   0.00  
  57   15:10  499.0    62   75.7     7    181.3    11.3    999.0   0.00  
  57   15:20  487.0    63   74.7     5    181.0    10.8    999.0   0.00  
  57   15:30  384.0    62   75.2     6    176.6    11.9    999.0   0.00  
  57   15:40  381.0    61   77.6     9    180.3    13.7    999.0   0.00  
  57   15:50  360.0    60   79.1     8    182.9    14.3    999.0   0.00  
  57   16:00  335.0    61   78.8     8    179.1    12.5    999.0   0.00  
  57   16:10  299.0    60   79.6     7    176.8    11.3    999.0   0.00  
  57   16:20  250.0    60   78.8     8    179.4    11.3    999.0   0.00  
  57   16:30  198.0    60   79.9     8    183.5    11.3    999.0   0.00  
  57   16:40  235.0    60   78.9     7    182.1     9.6    999.0   0.00  
  57   16:50  201.0    61   78.2     7    185.7     9.6    999.0   0.00  

Return to Cactus Peak graphs page.


Western Regional Climate Center,wrcc@dri.edu